createdAt,value
2022-11-28T00:00:38.465Z,7.18
2022-11-28T00:05:44.273Z,7.80
2022-11-28T00:10:48.240Z,8.03
2022-11-28T00:15:59.453Z,5.05
2022-11-28T00:21:01.449Z,5.70
2022-11-28T00:26:10.960Z,4.40
2022-11-28T00:36:13.905Z,5.93
2022-11-28T00:41:19.751Z,6.95
2022-11-28T00:46:21.984Z,11.23
2022-11-28T00:51:25.048Z,9.40
2022-11-28T00:56:30.603Z,11.13
2022-11-28T01:01:33.681Z,12.48
2022-11-28T01:06:36.410Z,7.43
2022-11-28T01:11:38.993Z,10.35
2022-11-28T01:16:40.361Z,8.02
2022-11-28T01:21:41.730Z,7.03
2022-11-28T01:26:43.143Z,8.70
2022-11-28T01:31:44.540Z,9.45
2022-11-28T01:36:45.868Z,11.15
2022-11-28T01:41:47.732Z,8.32
2022-11-28T01:46:49.077Z,5.75
2022-11-28T01:51:52.509Z,8.38
2022-11-28T01:56:58.624Z,9.07
2022-11-28T02:02:00.007Z,8.65
2022-11-28T02:07:01.478Z,11.90
2022-11-28T02:12:19.349Z,8.27
2022-11-28T02:17:39.194Z,5.85
2022-11-28T02:22:40.478Z,7.30
2022-11-28T02:27:53.550Z,4.80
2022-11-28T02:33:06.836Z,4.40
2022-11-28T02:38:24.249Z,5.60
2022-11-28T02:43:45.066Z,4.45
2022-11-28T02:48:57.031Z,5.00
2022-11-28T02:53:59.722Z,5.00
2022-11-28T02:59:01.061Z,4.90
2022-11-28T03:04:14.704Z,4.22
2022-11-28T03:09:26.388Z,7.63
2022-11-28T03:14:42.837Z,5.93
2022-11-28T03:19:47.202Z,4.25
2022-11-28T03:25:02.619Z,5.90
2022-11-28T03:30:11.263Z,7.47
2022-11-28T03:35:17.929Z,6.67
2022-11-28T03:40:22.543Z,4.65
2022-11-28T03:45:25.273Z,6.50
2022-11-28T03:50:46.970Z,5.70
2022-11-28T03:55:51.568Z,8.05
2022-11-28T04:01:02.824Z,4.85
2022-11-28T04:06:09.292Z,8.95
2022-11-28T04:11:15.537Z,6.95
2022-11-28T04:16:28.876Z,9.50
2022-11-28T04:21:30.224Z,8.52
2022-11-28T04:26:35.995Z,7.35
2022-11-28T04:31:39.343Z,8.02
2022-11-28T04:36:43.277Z,9.48
2022-11-28T04:41:49.474Z,10.18
2022-11-28T04:46:52.684Z,9.05
2022-11-28T04:51:53.962Z,7.35
2022-11-28T04:57:03.911Z,8.38
2022-11-28T05:02:06.179Z,8.82
2022-11-28T05:07:08.272Z,8.75
2022-11-28T05:12:09.599Z,9.75
2022-11-28T05:17:12.340Z,13.50
2022-11-28T05:22:13.668Z,13.45
2022-11-28T05:27:15.006Z,9.07
2022-11-28T05:32:16.393Z,11.13
2022-11-28T05:37:17.780Z,13.93
2022-11-28T05:42:19.084Z,11.73
2022-11-28T05:47:20.417Z,9.20
2022-11-28T05:52:21.716Z,10.68
2022-11-28T05:57:23.039Z,12.38
2022-11-28T06:02:24.522Z,14.13
2022-11-28T06:07:25.921Z,11.80
2022-11-28T06:12:27.266Z,10.98
2022-11-28T06:17:28.550Z,22.42
2022-11-28T06:22:29.833Z,9.05
2022-11-28T06:27:31.175Z,11.98
2022-11-28T06:32:32.661Z,9.82
2022-11-28T06:37:34.002Z,10.85
2022-11-28T06:42:36.141Z,11.38
2022-11-28T06:47:37.430Z,10.88
2022-11-28T06:52:38.810Z,11.32
2022-11-28T06:57:40.118Z,13.57
2022-11-28T07:02:41.483Z,10.88
2022-11-28T07:07:53.751Z,10.32
2022-11-28T07:12:56.638Z,10.32
2022-11-28T07:17:57.980Z,11.93
2022-11-28T07:22:59.314Z,11.50
2022-11-28T07:28:00.674Z,10.95
2022-11-28T07:33:02.051Z,12.57
2022-11-28T07:38:03.384Z,10.05
2022-11-28T07:43:04.669Z,11.23
2022-11-28T07:48:06.052Z,12.18
2022-11-28T07:53:07.536Z,8.25
2022-11-28T07:58:08.930Z,10.75
2022-11-28T08:03:10.266Z,6.43
2022-11-28T08:08:11.588Z,8.02
2022-11-28T08:13:13.365Z,8.05
2022-11-28T08:18:14.766Z,8.38
2022-11-28T08:23:16.081Z,7.88
2022-11-28T08:28:17.422Z,7.20
2022-11-28T08:33:18.705Z,9.38
2022-11-28T08:38:19.984Z,7.97
2022-11-28T08:43:21.281Z,10.80
2022-11-28T08:48:22.642Z,7.47
2022-11-28T08:53:24.160Z,9.70
2022-11-28T08:58:25.491Z,9.68
2022-11-28T09:03:26.872Z,10.63
2022-11-28T09:08:28.586Z,6.78
2022-11-28T09:13:29.869Z,9.15
2022-11-28T09:18:31.228Z,12.77
2022-11-28T09:23:32.639Z,12.43
2022-11-28T09:28:33.931Z,11.50
2022-11-28T09:33:35.802Z,8.40
2022-11-28T09:38:37.708Z,12.00
2022-11-28T09:43:42.528Z,10.77
2022-11-28T09:48:50.942Z,8.82
2022-11-28T09:53:54.998Z,9.27
2022-11-28T09:59:03.004Z,13.98
2022-11-28T10:04:23.173Z,9.55
2022-11-28T10:09:30.554Z,8.85
2022-11-28T10:14:37.951Z,7.70
2022-11-28T10:19:58.488Z,6.88
2022-11-28T10:25:03.723Z,8.73
2022-11-28T10:30:07.429Z,8.82
2022-11-28T10:35:17.790Z,8.50
2022-11-28T10:40:28.145Z,6.75
2022-11-28T10:45:58.911Z,10.45
2022-11-28T10:51:19.752Z,11.10
2022-11-28T10:56:44.997Z,9.73
2022-11-28T11:01:50.159Z,8.43
2022-11-28T11:07:16.157Z,8.15
2022-11-28T11:12:20.553Z,8.35
2022-11-28T11:17:25.666Z,9.15
2022-11-28T11:22:31.449Z,7.88
2022-11-28T11:27:33.078Z,8.88
2022-11-28T11:32:34.450Z,5.90
2022-11-28T11:37:37.561Z,8.43
2022-11-28T11:42:50.710Z,10.70
2022-11-28T11:47:52.081Z,11.15
2022-11-28T11:53:01.059Z,6.95
2022-11-28T11:58:06.013Z,7.53
2022-11-28T12:03:10.524Z,6.53
2022-11-28T12:08:11.930Z,10.10
2022-11-28T12:13:18.639Z,7.18
2022-11-28T12:18:30.303Z,5.60
2022-11-28T12:23:37.104Z,9.10
2022-11-28T12:28:47.404Z,8.55
2022-11-28T12:33:57.489Z,8.27
2022-11-28T12:39:18.419Z,12.18
2022-11-28T12:44:58.470Z,7.20
2022-11-28T12:50:08.731Z,10.75
2022-11-28T12:55:12.828Z,10.32
2022-11-28T13:00:22.045Z,7.25
2022-11-28T13:05:31.428Z,6.97
2022-11-28T13:15:33.946Z,8.88
2022-11-28T13:20:49.108Z,7.78
2022-11-28T13:25:53.078Z,11.88
2022-11-28T13:31:01.448Z,8.60
2022-11-28T13:36:04.275Z,10.05
2022-11-28T13:41:22.637Z,8.75
2022-11-28T13:46:30.166Z,7.47
2022-11-28T13:51:33.126Z,9.43
2022-11-28T13:56:35.060Z,7.72
2022-11-28T14:01:47.451Z,11.02
2022-11-28T14:06:58.797Z,9.75
2022-11-28T14:12:07.783Z,9.02
2022-11-28T14:17:09.752Z,10.57
2022-11-28T14:22:23.916Z,9.63
2022-11-28T14:27:27.658Z,10.73
2022-11-28T14:32:30.980Z,9.30
2022-11-28T14:37:34.714Z,10.77
2022-11-28T14:48:07.767Z,14.45
2022-11-28T14:53:27.718Z,11.43
2022-11-28T14:58:29.039Z,10.38
2022-11-28T15:03:42.668Z,11.77
2022-11-28T15:08:50.835Z,12.10
2022-11-28T15:14:01.892Z,13.75
2022-11-28T15:19:08.222Z,11.93
2022-11-28T15:24:15.818Z,12.50
2022-11-28T15:29:17.143Z,9.43
2022-11-28T15:34:28.836Z,20.02
2022-11-28T15:39:32.062Z,20.38
2022-11-28T15:44:34.652Z,11.60
2022-11-28T15:49:38.451Z,11.98
2022-11-28T15:54:41.648Z,11.65
2022-11-28T15:59:43.356Z,10.85
2022-11-28T16:04:45.499Z,12.13
2022-11-28T16:09:52.925Z,9.98
2022-11-28T16:14:58.704Z,8.18
2022-11-28T16:20:01.935Z,12.20
2022-11-28T16:25:16.828Z,8.98
2022-11-28T16:30:37.128Z,8.98
2022-11-28T16:35:41.473Z,11.38
2022-11-28T16:40:43.226Z,9.52
2022-11-28T16:45:44.539Z,9.45
2022-11-28T16:51:15.272Z,9.32
2022-11-28T16:56:31.598Z,11.38
2022-11-28T17:01:33.355Z,11.80
2022-11-28T17:06:37.394Z,16.67
2022-11-28T17:11:41.186Z,8.73
2022-11-28T17:16:42.839Z,11.70
2022-11-28T17:21:45.903Z,12.73
2022-11-28T17:26:47.396Z,15.18
2022-11-28T17:31:49.334Z,8.70
2022-11-28T17:36:51.056Z,8.75
2022-11-28T17:41:52.551Z,12.80
2022-11-28T17:46:54.346Z,11.65
2022-11-28T17:51:56.500Z,13.43
2022-11-28T17:56:57.931Z,11.88
2022-11-28T18:01:59.251Z,13.43
2022-11-28T18:07:01.583Z,16.90
2022-11-28T18:12:03.011Z,12.82
2022-11-28T18:17:05.001Z,13.80
2022-11-28T18:22:08.395Z,10.23
2022-11-28T18:27:09.740Z,17.00
2022-11-28T18:32:11.122Z,15.15
2022-11-28T18:37:12.473Z,12.68
2022-11-28T18:42:13.819Z,15.77
2022-11-28T18:47:15.269Z,15.85
2022-11-28T18:52:16.574Z,9.63
2022-11-28T18:57:17.994Z,17.05
2022-11-28T19:02:19.404Z,16.67
2022-11-28T19:07:21.891Z,16.30
2022-11-28T19:12:23.208Z,18.98
2022-11-28T19:17:25.791Z,10.93
2022-11-28T19:22:27.103Z,14.27
2022-11-28T19:27:28.442Z,14.93
2022-11-28T19:32:29.785Z,10.93
2022-11-28T19:37:31.099Z,14.60
2022-11-28T19:42:32.496Z,13.65
2022-11-28T19:47:34.403Z,20.75
2022-11-28T19:52:35.893Z,14.50
2022-11-28T19:57:37.721Z,17.65
2022-11-28T20:02:39.377Z,14.10
2022-11-28T20:07:40.765Z,16.02
2022-11-28T20:12:42.295Z,11.80
2022-11-28T20:17:44.940Z,22.85
2022-11-28T20:22:46.977Z,15.63
2022-11-28T20:27:48.354Z,15.05
2022-11-28T20:32:49.842Z,13.77
2022-11-28T20:37:51.314Z,12.15
2022-11-28T20:42:52.608Z,11.63
2022-11-28T20:47:53.978Z,13.45
2022-11-28T20:52:55.274Z,14.40
2022-11-28T20:57:56.565Z,10.60
2022-11-28T21:02:57.869Z,13.20
2022-11-28T21:07:59.476Z,14.73
2022-11-28T21:13:00.919Z,14.45
2022-11-28T21:18:03.634Z,10.63
2022-11-28T21:23:04.949Z,13.15
2022-11-28T21:28:06.564Z,14.35
2022-11-28T21:33:08.437Z,11.40
2022-11-28T21:38:10.028Z,16.55
2022-11-28T21:43:11.306Z,13.77
2022-11-28T21:48:12.596Z,16.23
2022-11-28T21:53:16.216Z,16.63
2022-11-28T21:58:21.198Z,12.57
2022-11-28T22:03:27.264Z,12.07
2022-11-28T22:08:28.989Z,13.15
2022-11-28T22:13:31.107Z,18.52
2022-11-28T22:18:32.555Z,16.80
2022-11-28T22:23:34.813Z,12.18
2022-11-28T22:28:37.760Z,14.80
2022-11-28T22:33:39.127Z,10.95
2022-11-28T22:38:41.232Z,11.10
2022-11-28T22:43:42.560Z,13.82
2022-11-28T22:48:43.893Z,14.15
2022-11-28T22:53:45.389Z,12.68
2022-11-28T22:58:48.567Z,14.38
2022-11-28T23:03:50.162Z,16.48
2022-11-28T23:08:53.130Z,13.10
2022-11-28T23:13:54.635Z,12.90
2022-11-28T23:18:57.809Z,10.13
2022-11-28T23:23:59.129Z,10.93
2022-11-28T23:29:02.312Z,13.73
2022-11-28T23:34:04.092Z,15.60
2022-11-28T23:39:07.350Z,11.05
2022-11-28T23:44:09.857Z,18.60
2022-11-28T23:49:12.175Z,17.92
2022-11-28T23:54:13.561Z,12.65
2022-11-28T23:59:14.865Z,12.63
